sensor_id;sensor_type;location;lat;lon;timestamp;P1;durP1;ratioP1;P2;durP2;ratioP2
18544;SDS011;9402;51.460;7.276;2023-04-06T00:01:27;14.95;;;8.25;;
18544;SDS011;9402;51.460;7.276;2023-04-06T00:03:29;15.65;;;8.18;;
18544;SDS011;9402;51.460;7.276;2023-04-06T00:05:31;16.48;;;9.07;;
18544;SDS011;9402;51.460;7.276;2023-04-06T00:07:34;16.58;;;8.10;;
18544;SDS011;9402;51.460;7.276;2023-04-06T00:09:36;14.32;;;8.32;;
18544;SDS011;9402;51.460;7.276;2023-04-06T00:11:40;23.67;;;8.30;;
18544;SDS011;9402;51.460;7.276;2023-04-06T00:13:42;17.17;;;8.75;;
18544;SDS011;9402;51.460;7.276;2023-04-06T00:15:45;15.45;;;9.18;;
18544;SDS011;9402;51.460;7.276;2023-04-06T00:17:47;17.17;;;8.68;;
18544;SDS011;9402;51.460;7.276;2023-04-06T00:19:50;10.68;;;7.93;;
18544;SDS011;9402;51.460;7.276;2023-04-06T00:21:52;12.05;;;8.02;;
18544;SDS011;9402;51.460;7.276;2023-04-06T00:23:55;16.77;;;8.45;;
18544;SDS011;9402;51.460;7.276;2023-04-06T00:25:57;15.23;;;8.70;;
18544;SDS011;9402;51.460;7.276;2023-04-06T00:28:00;14.32;;;8.57;;
18544;SDS011;9402;51.460;7.276;2023-04-06T00:30:03;17.05;;;9.45;;
18544;SDS011;9402;51.460;7.276;2023-04-06T00:32:06;17.92;;;9.00;;
18544;SDS011;9402;51.460;7.276;2023-04-06T00:34:09;14.75;;;9.80;;
18544;SDS011;9402;51.460;7.276;2023-04-06T00:36:11;15.32;;;8.73;;
18544;SDS011;9402;51.460;7.276;2023-04-06T00:38:14;14.13;;;8.10;;
18544;SDS011;9402;51.460;7.276;2023-04-06T00:40:16;16.02;;;9.25;;
18544;SDS011;9402;51.460;7.276;2023-04-06T00:42:19;14.38;;;8.90;;
18544;SDS011;9402;51.460;7.276;2023-04-06T00:44:27;15.07;;;8.35;;
18544;SDS011;9402;51.460;7.276;2023-04-06T00:46:29;15.48;;;8.55;;
18544;SDS011;9402;51.460;7.276;2023-04-06T00:48:31;13.38;;;8.52;;
18544;SDS011;9402;51.460;7.276;2023-04-06T00:50:34;15.90;;;8.30;;
18544;SDS011;9402;51.460;7.276;2023-04-06T00:52:36;14.90;;;8.98;;
18544;SDS011;9402;51.460;7.276;2023-04-06T00:54:39;14.82;;;8.05;;
18544;SDS011;9402;51.460;7.276;2023-04-06T00:56:41;12.02;;;8.45;;
18544;SDS011;9402;51.460;7.276;2023-04-06T00:58:44;16.17;;;9.23;;
18544;SDS011;9402;51.460;7.276;2023-04-06T01:00:48;14.80;;;8.70;;
18544;SDS011;9402;51.460;7.276;2023-04-06T01:02:50;16.45;;;9.18;;
18544;SDS011;9402;51.460;7.276;2023-04-06T01:04:53;12.40;;;8.77;;
18544;SDS011;9402;51.460;7.276;2023-04-06T02:39:53;17.02;;;11.50;;
18544;SDS011;9402;51.460;7.276;2023-04-06T02:41:55;26.05;;;10.57;;
18544;SDS011;9402;51.460;7.276;2023-04-06T02:43:58;23.05;;;11.25;;
18544;SDS011;9402;51.460;7.276;2023-04-06T02:46:00;27.05;;;11.75;;
18544;SDS011;9402;51.460;7.276;2023-04-06T02:48:02;17.42;;;11.20;;
18544;SDS011;9402;51.460;7.276;2023-04-06T02:50:05;19.55;;;11.00;;
18544;SDS011;9402;51.460;7.276;2023-04-06T02:52:08;21.35;;;11.38;;
18544;SDS011;9402;51.460;7.276;2023-04-06T02:54:10;16.17;;;10.45;;
18544;SDS011;9402;51.460;7.276;2023-04-06T02:56:14;24.58;;;11.55;;
18544;SDS011;9402;51.460;7.276;2023-04-06T02:58:16;18.70;;;11.15;;
18544;SDS011;9402;51.460;7.276;2023-04-06T03:00:19;18.42;;;11.32;;
18544;SDS011;9402;51.460;7.276;2023-04-06T03:02:21;21.20;;;11.07;;
18544;SDS011;9402;51.460;7.276;2023-04-06T03:04:23;20.60;;;11.10;;
18544;SDS011;9402;51.460;7.276;2023-04-06T03:06:26;20.92;;;11.38;;
18544;SDS011;9402;51.460;7.276;2023-04-06T03:08:28;21.80;;;11.00;;
18544;SDS011;9402;51.460;7.276;2023-04-06T03:10:30;15.02;;;10.02;;
18544;SDS011;9402;51.460;7.276;2023-04-06T03:12:34;20.23;;;10.73;;
18544;SDS011;9402;51.460;7.276;2023-04-06T03:14:36;25.98;;;13.10;;
18544;SDS011;9402;51.460;7.276;2023-04-06T03:16:39;20.23;;;12.30;;
18544;SDS011;9402;51.460;7.276;2023-04-06T03:18:41;19.02;;;12.73;;
18544;SDS011;9402;51.460;7.276;2023-04-06T03:20:44;18.15;;;11.98;;
18544;SDS011;9402;51.460;7.276;2023-04-06T03:22:47;18.17;;;11.38;;
18544;SDS011;9402;51.460;7.276;2023-04-06T03:24:49;18.92;;;11.38;;
18544;SDS011;9402;51.460;7.276;2023-04-06T03:26:51;21.23;;;12.73;;
18544;SDS011;9402;51.460;7.276;2023-04-06T03:28:55;17.95;;;11.77;;
18544;SDS011;9402;51.460;7.276;2023-04-06T03:30:57;25.77;;;13.93;;
18544;SDS011;9402;51.460;7.276;2023-04-06T03:33:00;22.65;;;12.73;;
18544;SDS011;9402;51.460;7.276;2023-04-06T03:35:02;18.42;;;12.35;;
18544;SDS011;9402;51.460;7.276;2023-04-06T03:37:05;19.90;;;11.13;;
18544;SDS011;9402;51.460;7.276;2023-04-06T03:39:07;16.60;;;10.98;;
18544;SDS011;9402;51.460;7.276;2023-04-06T03:41:10;20.58;;;12.52;;
18544;SDS011;9402;51.460;7.276;2023-04-06T03:43:12;24.73;;;12.55;;
18544;SDS011;9402;51.460;7.276;2023-04-06T03:45:16;23.52;;;11.38;;
18544;SDS011;9402;51.460;7.276;2023-04-06T03:47:18;21.25;;;11.32;;
18544;SDS011;9402;51.460;7.276;2023-04-06T03:49:20;20.15;;;12.13;;
18544;SDS011;9402;51.460;7.276;2023-04-06T03:51:23;22.55;;;13.30;;
18544;SDS011;9402;51.460;7.276;2023-04-06T03:53:25;17.95;;;11.43;;
18544;SDS011;9402;51.460;7.276;2023-04-06T03:55:27;20.55;;;11.07;;
18544;SDS011;9402;51.460;7.276;2023-04-06T03:57:29;17.15;;;10.48;;
18544;SDS011;9402;51.460;7.276;2023-04-06T03:59:32;17.98;;;11.43;;
18544;SDS011;9402;51.460;7.276;2023-04-06T04:01:36;16.77;;;10.40;;
18544;SDS011;9402;51.460;7.276;2023-04-06T04:03:39;19.35;;;11.50;;
18544;SDS011;9402;51.460;7.276;2023-04-06T04:05:41;18.95;;;11.45;;
18544;SDS011;9402;51.460;7.276;2023-04-06T04:07:44;20.70;;;11.98;;
18544;SDS011;9402;51.460;7.276;2023-04-06T04:09:46;21.75;;;11.02;;
18544;SDS011;9402;51.460;7.276;2023-04-06T04:11:48;16.10;;;10.57;;
18544;SDS011;9402;51.460;7.276;2023-04-06T04:13:50;13.82;;;9.82;;
18544;SDS011;9402;51.460;7.276;2023-04-06T04:15:53;17.35;;;10.30;;
18544;SDS011;9402;51.460;7.276;2023-04-06T04:17:56;18.15;;;10.73;;
18544;SDS011;9402;51.460;7.276;2023-04-06T04:19:59;16.52;;;10.30;;
18544;SDS011;9402;51.460;7.276;2023-04-06T04:22:01;14.88;;;10.18;;
18544;SDS011;9402;51.460;7.276;2023-04-06T04:24:05;17.02;;;10.68;;
18544;SDS011;9402;51.460;7.276;2023-04-06T04:26:07;17.77;;;10.35;;
18544;SDS011;9402;51.460;7.276;2023-04-06T04:28:10;21.73;;;11.50;;
18544;SDS011;9402;51.460;7.276;2023-04-06T04:30:12;20.20;;;11.40;;
18544;SDS011;9402;51.460;7.276;2023-04-06T04:32:15;18.42;;;11.23;;
18544;SDS011;9402;51.460;7.276;2023-04-06T04:34:19;15.60;;;10.40;;
18544;SDS011;9402;51.460;7.276;2023-04-06T04:36:23;19.88;;;11.45;;
18544;SDS011;9402;51.460;7.276;2023-04-06T04:38:26;17.58;;;10.52;;
18544;SDS011;9402;51.460;7.276;2023-04-06T04:40:29;18.27;;;12.10;;
18544;SDS011;9402;51.460;7.276;2023-04-06T04:42:31;18.35;;;10.27;;
18544;SDS011;9402;51.460;7.276;2023-04-06T04:44:34;18.92;;;10.70;;
18544;SDS011;9402;51.460;7.276;2023-04-06T04:46:37;14.40;;;10.75;;
18544;SDS011;9402;51.460;7.276;2023-04-06T04:48:39;18.60;;;11.50;;
18544;SDS011;9402;51.460;7.276;2023-04-06T04:50:43;23.13;;;10.90;;
18544;SDS011;9402;51.460;7.276;2023-04-06T04:52:45;16.45;;;11.00;;
18544;SDS011;9402;51.460;7.276;2023-04-06T04:54:47;17.40;;;10.60;;
18544;SDS011;9402;51.460;7.276;2023-04-06T04:56:50;17.83;;;10.55;;
18544;SDS011;9402;51.460;7.276;2023-04-06T04:58:52;16.88;;;11.15;;
18544;SDS011;9402;51.460;7.276;2023-04-06T05:00:55;18.90;;;11.48;;
18544;SDS011;9402;51.460;7.276;2023-04-06T05:02:57;18.65;;;10.70;;
18544;SDS011;9402;51.460;7.276;2023-04-06T05:04:59;15.93;;;11.27;;
18544;SDS011;9402;51.460;7.276;2023-04-06T05:07:04;16.20;;;10.55;;
18544;SDS011;9402;51.460;7.276;2023-04-06T05:09:06;18.48;;;9.52;;
18544;SDS011;9402;51.460;7.276;2023-04-06T05:11:09;13.32;;;9.18;;
18544;SDS011;9402;51.460;7.276;2023-04-06T05:13:11;15.38;;;10.30;;
18544;SDS011;9402;51.460;7.276;2023-04-06T05:15:14;16.45;;;9.80;;
18544;SDS011;9402;51.460;7.276;2023-04-06T05:17:17;20.55;;;11.23;;
18544;SDS011;9402;51.460;7.276;2023-04-06T05:19:19;19.50;;;10.35;;
18544;SDS011;9402;51.460;7.276;2023-04-06T05:21:21;21.95;;;11.50;;
18544;SDS011;9402;51.460;7.276;2023-04-06T05:23:25;17.77;;;10.55;;
18544;SDS011;9402;51.460;7.276;2023-04-06T05:25:27;17.83;;;10.50;;
18544;SDS011;9402;51.460;7.276;2023-04-06T05:27:30;16.13;;;9.80;;
18544;SDS011;9402;51.460;7.276;2023-04-06T05:29:32;16.08;;;9.45;;
18544;SDS011;9402;51.460;7.276;2023-04-06T05:31:35;16.10;;;10.57;;
18544;SDS011;9402;51.460;7.276;2023-04-06T05:33:37;16.60;;;10.38;;
18544;SDS011;9402;51.460;7.276;2023-04-06T05:35:40;14.32;;;9.57;;
18544;SDS011;9402;51.460;7.276;2023-04-06T05:37:42;16.90;;;9.32;;
18544;SDS011;9402;51.460;7.276;2023-04-06T05:39:46;15.52;;;10.48;;
18544;SDS011;9402;51.460;7.276;2023-04-06T05:41:49;14.13;;;9.80;;
18544;SDS011;9402;51.460;7.276;2023-04-06T05:43:51;13.27;;;9.55;;
18544;SDS011;9402;51.460;7.276;2023-04-06T05:45:53;13.55;;;9.80;;
18544;SDS011;9402;51.460;7.276;2023-04-06T05:47:56;15.65;;;9.70;;
18544;SDS011;9402;51.460;7.276;2023-04-06T05:49:58;14.70;;;9.13;;
18544;SDS011;9402;51.460;7.276;2023-04-06T05:52:00;12.55;;;8.75;;
18544;SDS011;9402;51.460;7.276;2023-04-06T05:54:04;14.35;;;9.50;;
18544;SDS011;9402;51.460;7.276;2023-04-06T05:56:08;17.95;;;10.25;;
18544;SDS011;9402;51.460;7.276;2023-04-06T05:58:10;14.85;;;9.15;;
18544;SDS011;9402;51.460;7.276;2023-04-06T06:00:13;17.58;;;10.07;;
18544;SDS011;9402;51.460;7.276;2023-04-06T06:02:15;19.17;;;9.77;;
18544;SDS011;9402;51.460;7.276;2023-04-06T06:04:18;18.10;;;9.40;;
18544;SDS011;9402;51.460;7.276;2023-04-06T06:06:20;16.17;;;9.10;;
18544;SDS011;9402;51.460;7.276;2023-04-06T06:08:22;19.35;;;8.73;;
18544;SDS011;9402;51.460;7.276;2023-04-06T06:10:25;18.27;;;9.30;;
18544;SDS011;9402;51.460;7.276;2023-04-06T06:12:29;15.02;;;7.90;;
18544;SDS011;9402;51.460;7.276;2023-04-06T06:14:31;13.13;;;8.30;;
18544;SDS011;9402;51.460;7.276;2023-04-06T06:16:33;13.32;;;9.05;;
18544;SDS011;9402;51.460;7.276;2023-04-06T06:18:36;13.38;;;8.98;;
18544;SDS011;9402;51.460;7.276;2023-04-06T06:20:38;15.10;;;8.55;;
18544;SDS011;9402;51.460;7.276;2023-04-06T06:22:40;16.13;;;8.20;;
18544;SDS011;9402;51.460;7.276;2023-04-06T06:24:43;12.35;;;7.60;;
18544;SDS011;9402;51.460;7.276;2023-04-06T06:26:45;13.95;;;8.15;;
18544;SDS011;9402;51.460;7.276;2023-04-06T06:28:50;14.00;;;8.32;;
18544;SDS011;9402;51.460;7.276;2023-04-06T06:30:52;14.32;;;8.55;;
18544;SDS011;9402;51.460;7.276;2023-04-06T06:32:54;11.55;;;7.88;;
18544;SDS011;9402;51.460;7.276;2023-04-06T06:34:57;14.23;;;8.30;;
18544;SDS011;9402;51.460;7.276;2023-04-06T06:36:59;12.40;;;8.93;;
18544;SDS011;9402;51.460;7.276;2023-04-06T06:39:02;15.35;;;8.18;;
18544;SDS011;9402;51.460;7.276;2023-04-06T06:41:05;13.23;;;7.47;;
18544;SDS011;9402;51.460;7.276;2023-04-06T06:43:08;13.25;;;8.25;;
18544;SDS011;9402;51.460;7.276;2023-04-06T06:45:11;10.60;;;7.65;;
18544;SDS011;9402;51.460;7.276;2023-04-06T06:47:14;13.38;;;8.55;;
18544;SDS011;9402;51.460;7.276;2023-04-06T06:49:16;13.32;;;7.70;;
18544;SDS011;9402;51.460;7.276;2023-04-06T06:51:18;12.18;;;8.25;;
18544;SDS011;9402;51.460;7.276;2023-04-06T06:53:21;12.05;;;7.60;;
18544;SDS011;9402;51.460;7.276;2023-04-06T06:55:24;16.55;;;7.53;;
18544;SDS011;9402;51.460;7.276;2023-04-06T06:57:27;17.40;;;7.75;;
18544;SDS011;9402;51.460;7.276;2023-04-06T06:59:29;12.93;;;6.82;;
18544;SDS011;9402;51.460;7.276;2023-04-06T07:01:33;19.35;;;8.10;;
18544;SDS011;9402;51.460;7.276;2023-04-06T07:03:35;13.07;;;6.97;;
18544;SDS011;9402;51.460;7.276;2023-04-06T07:05:38;11.73;;;7.50;;
18544;SDS011;9402;51.460;7.276;2023-04-06T07:07:40;13.57;;;7.80;;
18544;SDS011;9402;51.460;7.276;2023-04-06T07:09:42;12.98;;;7.53;;
18544;SDS011;9402;51.460;7.276;2023-04-06T07:11:45;24.77;;;8.15;;
18544;SDS011;9402;51.460;7.276;2023-04-06T07:13:48;16.80;;;8.77;;
18544;SDS011;9402;51.460;7.276;2023-04-06T07:15:50;11.95;;;7.90;;
18544;SDS011;9402;51.460;7.276;2023-04-06T07:17:54;13.00;;;6.78;;
18544;SDS011;9402;51.460;7.276;2023-04-06T07:19:56;12.70;;;7.65;;
18544;SDS011;9402;51.460;7.276;2023-04-06T07:21:58;18.58;;;6.68;;
18544;SDS011;9402;51.460;7.276;2023-04-06T07:24:01;24.00;;;8.00;;
18544;SDS011;9402;51.460;7.276;2023-04-06T07:26:03;11.88;;;7.22;;
18544;SDS011;9402;51.460;7.276;2023-04-06T07:28:05;15.60;;;8.23;;
18544;SDS011;9402;51.460;7.276;2023-04-06T07:30:08;11.82;;;7.38;;
18544;SDS011;9402;51.460;7.276;2023-04-06T07:32:10;11.10;;;6.87;;
18544;SDS011;9402;51.460;7.276;2023-04-06T07:34:14;15.70;;;6.67;;
18544;SDS011;9402;51.460;7.276;2023-04-06T07:36:16;12.50;;;7.80;;
18544;SDS011;9402;51.460;7.276;2023-04-06T07:38:19;14.40;;;6.57;;
18544;SDS011;9402;51.460;7.276;2023-04-06T07:40:21;15.97;;;7.33;;
18544;SDS011;9402;51.460;7.276;2023-04-06T07:42:24;12.13;;;6.90;;
18544;SDS011;9402;51.460;7.276;2023-04-06T07:44:26;12.60;;;6.97;;
18544;SDS011;9402;51.460;7.276;2023-04-06T07:46:28;14.53;;;7.80;;
18544;SDS011;9402;51.460;7.276;2023-04-06T07:48:31;10.73;;;6.90;;
18544;SDS011;9402;51.460;7.276;2023-04-06T07:50:35;13.13;;;8.00;;
18544;SDS011;9402;51.460;7.276;2023-04-06T07:52:38;13.00;;;7.43;;
18544;SDS011;9402;51.460;7.276;2023-04-06T07:54:40;14.70;;;7.20;;
18544;SDS011;9402;51.460;7.276;2023-04-06T07:56:43;12.60;;;7.53;;
18544;SDS011;9402;51.460;7.276;2023-04-06T07:58:45;11.77;;;7.30;;
18544;SDS011;9402;51.460;7.276;2023-04-06T08:00:47;13.90;;;8.17;;
18544;SDS011;9402;51.460;7.276;2023-04-06T08:02:50;11.63;;;7.93;;
18544;SDS011;9402;51.460;7.276;2023-04-06T08:04:52;11.70;;;7.00;;
18544;SDS011;9402;51.460;7.276;2023-04-06T08:06:56;14.90;;;8.77;;
18544;SDS011;9402;51.460;7.276;2023-04-06T08:08:58;15.50;;;7.63;;
18544;SDS011;9402;51.460;7.276;2023-04-06T08:11:01;12.50;;;7.90;;
18544;SDS011;9402;51.460;7.276;2023-04-06T08:13:03;16.60;;;8.00;;
18544;SDS011;9402;51.460;7.276;2023-04-06T08:15:06;16.00;;;8.40;;
18544;SDS011;9402;51.460;7.276;2023-04-06T08:17:08;17.67;;;8.30;;
18544;SDS011;9402;51.460;7.276;2023-04-06T08:19:11;16.70;;;8.60;;
18544;SDS011;9402;51.460;7.276;2023-04-06T08:21:13;18.37;;;8.20;;
18544;SDS011;9402;51.460;7.276;2023-04-06T08:23:17;14.07;;;7.43;;
18544;SDS011;9402;51.460;7.276;2023-04-06T08:25:19;21.73;;;9.43;;
18544;SDS011;9402;51.460;7.276;2023-04-06T08:27:22;13.90;;;8.00;;
18544;SDS011;9402;51.460;7.276;2023-04-06T08:29:24;19.73;;;9.40;;
18544;SDS011;9402;51.460;7.276;2023-04-06T08:31:26;13.20;;;8.27;;
18544;SDS011;9402;51.460;7.276;2023-04-06T08:33:29;18.60;;;9.00;;
18544;SDS011;9402;51.460;7.276;2023-04-06T08:35:32;14.70;;;9.47;;
18544;SDS011;9402;51.460;7.276;2023-04-06T08:37:34;20.90;;;8.77;;
18544;SDS011;9402;51.460;7.276;2023-04-06T08:39:38;11.60;;;9.00;;
18544;SDS011;9402;51.460;7.276;2023-04-06T08:41:41;15.67;;;9.13;;
18544;SDS011;9402;51.460;7.276;2023-04-06T08:43:44;17.03;;;9.00;;
18544;SDS011;9402;51.460;7.276;2023-04-06T08:45:48;19.40;;;9.70;;
18544;SDS011;9402;51.460;7.276;2023-04-06T08:47:51;727.50;;;656.37;;
18544;SDS011;9402;51.460;7.276;2023-04-06T08:49:54;651.60;;;587.90;;
18544;SDS011;9402;51.460;7.276;2023-04-06T08:51:57;580.13;;;525.03;;
18544;SDS011;9402;51.460;7.276;2023-04-06T08:54:00;558.67;;;507.60;;
18544;SDS011;9402;51.460;7.276;2023-04-06T08:56:04;544.60;;;490.37;;
18544;SDS011;9402;51.460;7.276;2023-04-06T08:58:07;552.83;;;500.97;;
18544;SDS011;9402;51.460;7.276;2023-04-06T09:00:10;578.03;;;523.37;;
18544;SDS011;9402;51.460;7.276;2023-04-06T09:02:15;495.07;;;450.17;;
18544;SDS011;9402;51.460;7.276;2023-04-06T09:04:18;507.30;;;459.60;;
18544;SDS011;9402;51.460;7.276;2023-04-06T09:06:21;507.83;;;459.87;;
18544;SDS011;9402;51.460;7.276;2023-04-06T09:08:26;505.43;;;457.03;;
18544;SDS011;9402;51.460;7.276;2023-04-06T09:10:28;473.67;;;429.83;;
18544;SDS011;9402;51.460;7.276;2023-04-06T09:12:33;495.33;;;448.23;;
18544;SDS011;9402;51.460;7.276;2023-04-06T09:14:36;522.40;;;474.60;;
18544;SDS011;9402;51.460;7.276;2023-04-06T09:16:39;421.80;;;382.63;;
18544;SDS011;9402;51.460;7.276;2023-04-06T09:18:42;435.47;;;395.70;;
18544;SDS011;9402;51.460;7.276;2023-04-06T09:20:45;497.47;;;451.07;;
18544;SDS011;9402;51.460;7.276;2023-04-06T09:22:47;507.57;;;460.97;;
18544;SDS011;9402;51.460;7.276;2023-04-06T09:24:51;486.40;;;439.80;;
18544;SDS011;9402;51.460;7.276;2023-04-06T09:26:54;422.63;;;382.37;;
18544;SDS011;9402;51.460;7.276;2023-04-06T09:28:58;448.33;;;406.60;;
18544;SDS011;9402;51.460;7.276;2023-04-06T09:31:01;463.53;;;420.10;;
18544;SDS011;9402;51.460;7.276;2023-04-06T09:33:03;404.20;;;367.60;;
18544;SDS011;9402;51.460;7.276;2023-04-06T09:35:07;419.97;;;379.93;;
18544;SDS011;9402;51.460;7.276;2023-04-06T09:37:13;436.70;;;395.27;;
18544;SDS011;9402;51.460;7.276;2023-04-06T09:39:19;463.40;;;418.43;;
18544;SDS011;9402;51.460;7.276;2023-04-06T09:41:23;507.63;;;458.53;;
18544;SDS011;9402;51.460;7.276;2023-04-06T09:43:27;473.00;;;427.93;;
18544;SDS011;9402;51.460;7.276;2023-04-06T09:45:31;439.17;;;397.47;;
18544;SDS011;9402;51.460;7.276;2023-04-06T09:47:33;407.37;;;370.07;;
18544;SDS011;9402;51.460;7.276;2023-04-06T09:49:40;458.53;;;415.03;;
18544;SDS011;9402;51.460;7.276;2023-04-06T09:51:44;425.47;;;385.70;;
18544;SDS011;9402;51.460;7.276;2023-04-06T09:53:49;469.00;;;425.27;;
18544;SDS011;9402;51.460;7.276;2023-04-06T09:55:55;481.43;;;435.17;;
18544;SDS011;9402;51.460;7.276;2023-04-06T09:58:01;419.50;;;379.87;;
18544;SDS011;9402;51.460;7.276;2023-04-06T10:00:07;407.73;;;370.13;;
18544;SDS011;9402;51.460;7.276;2023-04-06T10:02:14;456.60;;;413.27;;
18544;SDS011;9402;51.460;7.276;2023-04-06T10:04:21;460.90;;;417.00;;
18544;SDS011;9402;51.460;7.276;2023-04-06T10:06:32;452.27;;;410.27;;
18544;SDS011;9402;51.460;7.276;2023-04-06T10:08:35;451.77;;;408.20;;
18544;SDS011;9402;51.460;7.276;2023-04-06T10:10:41;483.50;;;437.40;;
18544;SDS011;9402;51.460;7.276;2023-04-06T10:12:43;442.07;;;401.07;;
18544;SDS011;9402;51.460;7.276;2023-04-06T10:14:46;478.47;;;432.83;;
18544;SDS011;9402;51.460;7.276;2023-04-06T10:16:49;428.83;;;388.60;;
18544;SDS011;9402;51.460;7.276;2023-04-06T10:18:54;471.77;;;426.90;;
18544;SDS011;9402;51.460;7.276;2023-04-06T10:21:00;488.23;;;441.80;;
18544;SDS011;9402;51.460;7.276;2023-04-06T10:23:08;400.23;;;362.93;;
18544;SDS011;9402;51.460;7.276;2023-04-06T10:25:14;517.73;;;468.13;;
18544;SDS011;9402;51.460;7.276;2023-04-06T10:27:16;483.17;;;435.90;;
18544;SDS011;9402;51.460;7.276;2023-04-06T10:29:42;434.13;;;392.93;;
18544;SDS011;9402;51.460;7.276;2023-04-06T10:31:46;444.17;;;402.90;;
18544;SDS011;9402;51.460;7.276;2023-04-06T10:33:54;429.37;;;388.33;;
18544;SDS011;9402;51.460;7.276;2023-04-06T10:35:57;506.17;;;457.47;;
18544;SDS011;9402;51.460;7.276;2023-04-06T10:38:10;402.30;;;365.47;;
18544;SDS011;9402;51.460;7.276;2023-04-06T10:40:18;401.40;;;363.80;;
18544;SDS011;9402;51.460;7.276;2023-04-06T10:42:23;416.57;;;377.07;;
18544;SDS011;9402;51.460;7.276;2023-04-06T10:44:26;384.23;;;348.53;;
18544;SDS011;9402;51.460;7.276;2023-04-06T10:46:29;422.47;;;381.47;;
18544;SDS011;9402;51.460;7.276;2023-04-06T10:48:38;448.23;;;404.67;;
18544;SDS011;9402;51.460;7.276;2023-04-06T10:50:44;415.03;;;376.40;;
18544;SDS011;9402;51.460;7.276;2023-04-06T10:52:58;392.07;;;355.20;;
18544;SDS011;9402;51.460;7.276;2023-04-06T10:55:01;363.30;;;329.40;;
18544;SDS011;9402;51.460;7.276;2023-04-06T10:57:03;381.60;;;345.97;;
18544;SDS011;9402;51.460;7.276;2023-04-06T10:59:06;407.73;;;369.53;;
18544;SDS011;9402;51.460;7.276;2023-04-06T11:01:08;370.60;;;335.87;;
18544;SDS011;9402;51.460;7.276;2023-04-06T11:03:13;326.77;;;294.70;;
18544;SDS011;9402;51.460;7.276;2023-04-06T11:05:15;388.03;;;349.83;;
18544;SDS011;9402;51.460;7.276;2023-04-06T11:07:23;336.97;;;305.17;;
18544;SDS011;9402;51.460;7.276;2023-04-06T11:09:27;344.23;;;310.40;;
18544;SDS011;9402;51.460;7.276;2023-04-06T11:11:31;461.33;;;417.67;;
18544;SDS011;9402;51.460;7.276;2023-04-06T11:13:37;478.13;;;433.00;;
18544;SDS011;9402;51.460;7.276;2023-04-06T11:15:41;403.33;;;364.57;;
18544;SDS011;9402;51.460;7.276;2023-04-06T11:17:43;331.93;;;300.70;;
18544;SDS011;9402;51.460;7.276;2023-04-06T11:19:46;361.63;;;325.97;;
18544;SDS011;9402;51.460;7.276;2023-04-06T11:21:48;426.77;;;386.30;;
18544;SDS011;9402;51.460;7.276;2023-04-06T11:23:52;442.67;;;401.33;;
18544;SDS011;9402;51.460;7.276;2023-04-06T11:26:04;456.70;;;412.33;;
18544;SDS011;9402;51.460;7.276;2023-04-06T11:28:11;427.67;;;387.53;;
18544;SDS011;9402;51.460;7.276;2023-04-06T11:30:13;356.77;;;321.90;;
18544;SDS011;9402;51.460;7.276;2023-04-06T11:32:22;345.20;;;313.87;;
18544;SDS011;9402;51.460;7.276;2023-04-06T11:34:25;482.20;;;436.17;;
18544;SDS011;9402;51.460;7.276;2023-04-06T11:36:29;461.27;;;418.07;;
18544;SDS011;9402;51.460;7.276;2023-04-06T11:38:32;577.97;;;522.07;;
18544;SDS011;9402;51.460;7.276;2023-04-06T11:40:35;359.83;;;327.07;;
18544;SDS011;9402;51.460;7.276;2023-04-06T11:42:38;402.53;;;362.83;;
18544;SDS011;9402;51.460;7.276;2023-04-06T11:44:42;402.30;;;364.40;;
18544;SDS011;9402;51.460;7.276;2023-04-06T11:46:51;288.20;;;264.03;;
18544;SDS011;9402;51.460;7.276;2023-04-06T11:48:57;266.03;;;242.27;;
18544;SDS011;9402;51.460;7.276;2023-04-06T11:51:01;273.63;;;248.63;;
18544;SDS011;9402;51.460;7.276;2023-04-06T11:53:05;274.53;;;249.40;;
18544;SDS011;9402;51.460;7.276;2023-04-06T11:55:11;304.27;;;276.47;;
18544;SDS011;9402;51.460;7.276;2023-04-06T11:57:16;270.07;;;245.40;;
18544;SDS011;9402;51.460;7.276;2023-04-06T11:59:19;237.10;;;215.10;;
18544;SDS011;9402;51.460;7.276;2023-04-06T12:01:21;287.20;;;262.03;;
18544;SDS011;9402;51.460;7.276;2023-04-06T12:03:24;324.53;;;296.43;;
18544;SDS011;9402;51.460;7.276;2023-04-06T12:05:26;297.37;;;271.43;;
18544;SDS011;9402;51.460;7.276;2023-04-06T12:07:29;247.03;;;225.13;;
18544;SDS011;9402;51.460;7.276;2023-04-06T12:09:31;291.40;;;265.13;;
18544;SDS011;9402;51.460;7.276;2023-04-06T12:11:35;307.87;;;281.10;;
18544;SDS011;9402;51.460;7.276;2023-04-06T12:13:39;307.23;;;281.03;;
18544;SDS011;9402;51.460;7.276;2023-04-06T12:15:41;268.37;;;245.20;;
18544;SDS011;9402;51.460;7.276;2023-04-06T12:17:44;241.00;;;219.10;;
18544;SDS011;9402;51.460;7.276;2023-04-06T12:19:46;302.23;;;276.40;;
18544;SDS011;9402;51.460;7.276;2023-04-06T12:21:49;302.83;;;277.20;;
18544;SDS011;9402;51.460;7.276;2023-04-06T12:23:51;316.93;;;289.73;;
18544;SDS011;9402;51.460;7.276;2023-04-06T12:25:53;266.27;;;242.03;;
18544;SDS011;9402;51.460;7.276;2023-04-06T12:27:56;287.37;;;261.17;;
18544;SDS011;9402;51.460;7.276;2023-04-06T12:30:00;282.57;;;257.47;;
18544;SDS011;9402;51.460;7.276;2023-04-06T12:32:02;303.00;;;277.10;;
18544;SDS011;9402;51.460;7.276;2023-04-06T12:34:05;294.37;;;268.80;;
18544;SDS011;9402;51.460;7.276;2023-04-06T12:36:11;326.97;;;300.27;;
18544;SDS011;9402;51.460;7.276;2023-04-06T12:38:13;345.80;;;316.77;;
18544;SDS011;9402;51.460;7.276;2023-04-06T12:40:16;335.87;;;307.10;;
18544;SDS011;9402;51.460;7.276;2023-04-06T12:42:18;324.33;;;295.83;;
18544;SDS011;9402;51.460;7.276;2023-04-06T12:44:20;280.63;;;255.33;;
18544;SDS011;9402;51.460;7.276;2023-04-06T12:46:24;300.00;;;273.80;;
18544;SDS011;9402;51.460;7.276;2023-04-06T12:48:27;317.50;;;289.00;;
18544;SDS011;9402;51.460;7.276;2023-04-06T12:50:30;328.33;;;300.97;;
18544;SDS011;9402;51.460;7.276;2023-04-06T12:52:32;302.10;;;276.70;;
18544;SDS011;9402;51.460;7.276;2023-04-06T12:54:35;339.97;;;311.00;;
18544;SDS011;9402;51.460;7.276;2023-04-06T12:56:37;336.90;;;308.03;;
18544;SDS011;9402;51.460;7.276;2023-04-06T12:58:40;315.83;;;288.07;;
18544;SDS011;9402;51.460;7.276;2023-04-06T13:00:42;311.10;;;284.70;;
18544;SDS011;9402;51.460;7.276;2023-04-06T13:02:46;332.67;;;303.03;;
18544;SDS011;9402;51.460;7.276;2023-04-06T13:04:49;179.87;;;163.70;;
18544;SDS011;9402;51.460;7.276;2023-04-06T13:06:51;112.40;;;101.43;;
18544;SDS011;9402;51.460;7.276;2023-04-06T13:08:54;61.93;;;55.40;;
18544;SDS011;9402;51.460;7.276;2023-04-06T13:10:57;119.00;;;107.93;;
18544;SDS011;9402;51.460;7.276;2023-04-06T13:12:59;160.80;;;147.20;;
18544;SDS011;9402;51.460;7.276;2023-04-06T13:15:01;86.23;;;76.60;;
18544;SDS011;9402;51.460;7.276;2023-04-06T13:17:05;195.43;;;178.00;;
18544;SDS011;9402;51.460;7.276;2023-04-06T13:19:08;86.73;;;76.57;;
18544;SDS011;9402;51.460;7.276;2023-04-06T13:21:13;116.13;;;105.33;;
18544;SDS011;9402;51.460;7.276;2023-04-06T13:23:17;125.43;;;112.60;;
18544;SDS011;9402;51.460;7.276;2023-04-06T13:25:19;123.73;;;112.33;;
18544;SDS011;9402;51.460;7.276;2023-04-06T13:27:21;178.87;;;162.57;;
18544;SDS011;9402;51.460;7.276;2023-04-06T13:29:24;212.47;;;193.30;;
18544;SDS011;9402;51.460;7.276;2023-04-06T13:31:27;97.70;;;88.10;;
18544;SDS011;9402;51.460;7.276;2023-04-06T13:33:29;68.80;;;62.00;;
18544;SDS011;9402;51.460;7.276;2023-04-06T13:35:34;138.97;;;126.37;;
18544;SDS011;9402;51.460;7.276;2023-04-06T13:37:36;179.17;;;162.20;;
18544;SDS011;9402;51.460;7.276;2023-04-06T13:39:39;91.33;;;82.40;;